Pleasantview, Pennsylvania
Current Conditions -  °F | °C
As of 9:53 AM on Saturday 25 Oct 2014 (Local Time) from KUNV Reporting Station
Broken Clouds Broken Clouds  
Wind Chill: 52°   Ceiling: 4500
Heat Index: 52°   Visibility: 10mi
Dew Point: 41°   Wind: 7mph
Humidity: 67%   Direction: 230°SW
Pressure: 29.91"   Gusts: NA
Location:  40.4991°N, 77.4687°W
Report Text: KUNV 251353Z 23006KT 10SM BKN045 11/05 A2991
Loading
Personal Weather Stations






























Interactive Weather Map
Tropical Storm Tracking
New forecast layout! Learn more

10-Day Weather Forecast

Advertisements
Track Severe Weather on mobile